Time;durP1;ratioP1;P1;durP2;ratioP2;P2;SDS_P1;SDS_P2;PMS_P1;PMS_P2;Temp;Humidity;BMP_temperature;BMP_pressure;BME280_temperature;BME280_humidity;BME280_pressure;Samples;Min_cycle;Max_cycle;Signal;HPM_P1;HPM_P2
2022/07/03 00:02:21;;;;;;;7.93;7.30;;;;;;;24.39;68.54;95456.72;5010755;28;20204;-70
2022/07/03 00:04:47;;;;;;;8.30;7.70;;;;;;;24.56;68.16;95471.72;5010756;28;20612;-70
2022/07/03 00:07:14;;;;;;;8.52;7.93;;;;;;;24.52;68.03;95472.09;5010999;28;20200;-70
2022/07/03 00:09:41;;;;;;;8.50;7.78;;;;;;;24.58;67.80;95469.00;5018502;28;20262;-70
2022/07/03 00:12:08;;;;;;;8.75;8.05;;;;;;;24.65;67.56;95472.75;5030510;28;20199;-71
2022/07/03 00:14:36;;;;;;;8.18;7.57;;;;;;;24.77;67.54;95462.13;5029798;28;20253;-70
2022/07/03 00:17:04;;;;;;;8.85;8.07;;;;;;;24.89;66.81;95460.31;5032503;28;20265;-70
2022/07/03 00:19:30;;;;;;;8.32;7.72;;;;;;;24.94;67.01;95454.72;5025100;28;20577;-70
2022/07/03 00:22:03;;;;;;;9.32;8.40;;;;;;;24.92;66.73;95448.81;5010547;28;20266;-69
2022/07/03 00:24:34;;;;;;;10.35;7.90;;;;;;;24.79;67.21;95462.00;5010363;28;20224;-70
2022/07/03 00:27:02;;;;;;;8.43;7.75;;;;;;;24.38;69.07;95465.44;5010393;28;20649;-73
2022/07/03 00:29:35;;;;;;;9.43;8.38;;;;;;;24.25;69.79;95463.00;5015646;28;20247;-71
2022/07/03 00:32:06;;;;;;;8.77;8.07;;;;;;;24.49;68.50;95454.19;5030238;28;20207;-71
2022/07/03 00:34:33;;;;;;;8.98;8.23;;;;;;;24.50;68.99;95448.84;5031357;28;20630;-70
2022/07/03 00:37:01;;;;;;;8.65;8.02;;;;;;;24.51;68.33;95447.06;5031772;28;20334;-71
2022/07/03 00:39:28;;;;;;;8.45;7.85;;;;;;;24.69;68.14;95440.38;5026850;28;20211;-70
2022/07/03 00:42:02;;;;;;;8.35;7.65;;;;;;;24.83;67.35;95445.22;5011831;28;20201;-70
2022/07/03 00:44:29;;;;;;;10.57;7.65;;;;;;;24.83;67.53;95445.22;5011807;28;20784;-70
2022/07/03 00:46:56;;;;;;;9.98;8.05;;;;;;;24.79;67.18;95437.78;5011606;28;20263;-71
2022/07/03 00:49:25;;;;;;;8.77;7.97;;;;;;;24.69;67.32;95453.34;5015875;28;20273;-71
2022/07/03 00:51:53;;;;;;;8.63;8.02;;;;;;;24.63;68.13;95443.47;5031475;28;20203;-70
2022/07/03 00:54:22;;;;;;;8.93;8.13;;;;;;;24.59;67.62;95448.09;5031419;28;20231;-71
2022/07/03 00:56:52;;;;;;;8.63;7.93;;;;;;;24.65;67.42;95442.38;5031462;28;20253;-72
2022/07/03 00:59:19;;;;;;;9.07;8.27;;;;;;;24.33;68.91;95429.44;5028061;28;20259;-71
2022/07/03 01:01:47;;;;;;;7.93;7.35;;;;;;;24.28;68.85;95429.00;5011536;28;20255;-70
2022/07/03 01:04:23;;;;;;;8.68;7.90;;;;;;;24.50;68.10;95424.66;5011712;28;20234;-71
2022/07/03 01:07:01;;;;;;;14.30;8.00;;;;;;;24.50;68.26;95416.84;5011701;28;20294;-71
2022/07/03 01:09:38;;;;;;;9.82;8.93;;;;;;;24.22;68.87;95419.09;5015692;28;20596;-71
2022/07/03 01:12:18;;;;;;;9.18;8.15;;;;;;;24.44;67.98;95422.56;5031124;28;20201;-71
2022/07/03 01:14:57;;;;;;;8.45;7.95;;;;;;;24.59;67.44;95421.28;5031560;28;20196;-71
2022/07/03 01:17:27;;;;;;;11.73;8.02;;;;;;;24.68;67.24;95417.91;5031178;28;20269;-71
2022/07/03 01:20:01;;;;;;;9.18;8.45;;;;;;;24.70;67.08;95416.03;5023594;28;20621;-71
2022/07/03 01:22:33;;;;;;;9.23;8.32;;;;;;;24.69;67.17;95416.97;5011380;28;20200;-71
2022/07/03 01:25:25;;;;;;;9.68;8.70;;;;;;;24.71;66.79;95415.91;5011334;28;20735;-71
2022/07/03 01:28:09;;;;;;;9.43;8.57;;;;;;;24.79;66.77;95415.22;5011270;28;20692;-70
2022/07/03 01:30:39;;;;;;;10.82;8.60;;;;;;;24.48;67.83;95411.78;5023636;28;20282;-71
2022/07/03 01:33:08;;;;;;;13.57;9.10;;;;;;;24.04;69.51;95417.97;5031150;28;20630;-71
2022/07/03 01:35:36;;;;;;;9.10;8.18;;;;;;;24.05;69.49;95409.25;5031112;28;20282;-71
2022/07/03 01:38:06;;;;;;;10.15;8.52;;;;;;;24.22;68.75;95423.47;5031085;28;20257;-71
2022/07/03 01:40:34;;;;;;;11.90;8.30;;;;;;;24.51;68.01;95413.28;5018483;28;20197;-71
2022/07/03 01:43:06;;;;;;;9.40;8.35;;;;;;;24.64;67.60;95429.50;5011526;28;20200;-71
2022/07/03 01:45:38;;;;;;;9.10;8.18;;;;;;;24.69;67.09;95422.16;5011389;28;20681;-71
2022/07/03 01:48:07;;;;;;;9.00;7.50;;;;;;;24.65;67.36;95429.38;5010998;28;20756;-71
2022/07/03 01:50:34;;;;;;;10.70;8.07;;;;;;;24.63;66.81;95422.66;5022626;28;20199;-71
2022/07/03 01:53:03;;;;;;;8.20;7.50;;;;;;;24.49;67.60;95420.41;5030789;28;20277;-70
2022/07/03 01:55:34;;;;;;;8.50;7.82;;;;;;;23.76;70.62;95416.78;5030690;28;20235;-70
2022/07/03 01:58:01;;;;;;;9.35;8.65;;;;;;;23.51;71.07;95420.47;5030452;28;20199;-70
2022/07/03 02:00:30;;;;;;;8.73;7.85;;;;;;;23.79;70.37;95420.91;5019724;28;20740;-71
2022/07/03 02:02:59;;;;;;;9.60;8.80;;;;;;;24.04;69.80;95425.78;5010684;28;20200;-71
2022/07/03 02:05:39;;;;;;;9.70;8.80;;;;;;;24.18;68.58;95422.88;5011142;28;20260;-71
2022/07/03 02:08:28;;;;;;;9.88;9.18;;;;;;;24.42;67.76;95425.28;5010963;28;20250;-71
2022/07/03 02:11:09;;;;;;;9.18;8.32;;;;;;;24.41;67.80;95423.63;5025214;28;20204;-71
2022/07/03 02:13:39;;;;;;;10.75;8.52;;;;;;;24.08;68.94;95421.97;5030513;28;20231;-72
2022/07/03 02:16:10;;;;;;;9.02;8.25;;;;;;;23.85;69.35;95425.59;5030843;28;20254;-71
2022/07/03 02:18:38;;;;;;;9.80;8.90;;;;;;;23.74;69.78;95424.72;5030735;28;20235;-71
2022/07/03 02:21:14;;;;;;;9.10;8.32;;;;;;;23.79;69.84;95418.31;5014683;28;20201;-71
2022/07/03 02:23:50;;;;;;;9.60;8.68;;;;;;;24.06;68.74;95423.88;5011092;28;20262;-70
2022/07/03 02:26:18;;;;;;;9.52;8.38;;;;;;;24.24;67.84;95421.56;5010777;28;20192;-71
2022/07/03 02:28:59;;;;;;;9.63;8.73;;;;;;;24.14;68.59;95426.69;5010920;28;20280;-71
2022/07/03 02:31:29;;;;;;;8.98;8.27;;;;;;;24.29;67.62;95420.25;5028466;28;20215;-70
2022/07/03 02:34:00;;;;;;;11.13;9.38;;;;;;;23.96;68.73;95423.00;5030262;28;20201;-71
2022/07/03 02:36:29;;;;;;;11.73;9.40;;;;;;;24.06;68.43;95434.25;5030717;28;20281;-71
2022/07/03 02:38:58;;;;;;;9.70;8.88;;;;;;;23.88;69.00;95425.38;5033521;28;20199;-71
2022/07/03 02:41:29;;;;;;;8.73;8.23;;;;;;;23.95;69.29;95429.13;5016301;28;20208;-71
2022/07/03 02:44:00;;;;;;;10.25;9.23;;;;;;;24.04;68.83;95430.97;5013988;28;20192;-73
2022/07/03 02:46:50;;;;;;;11.85;9.05;;;;;;;23.94;68.85;95430.91;5014499;28;20204;-71
2022/07/03 02:49:31;;;;;;;9.48;8.73;;;;;;;23.16;71.64;95422.41;5014082;28;20201;-72
2022/07/03 02:52:09;;;;;;;10.05;9.25;;;;;;;22.83;73.32;95426.66;5014162;28;20200;-71
2022/07/03 02:54:48;;;;;;;9.30;8.50;;;;;;;23.31;71.43;95432.41;5013822;28;20733;-71
2022/07/03 02:57:18;;;;;;;10.38;9.40;;;;;;;23.55;70.69;95444.44;5014356;28;20204;-71
2022/07/03 02:59:54;;;;;;;11.43;9.85;;;;;;;23.89;69.02;95432.22;5017333;28;20699;-70
2022/07/03 03:02:47;;;;;;;9.85;8.95;;;;;;;24.16;67.92;95444.75;5033940;28;20287;-70
2022/07/03 03:05:20;;;;;;;15.30;9.50;;;;;;;24.06;68.14;95444.66;5032599;28;20586;-71
2022/07/03 03:08:00;;;;;;;9.77;8.77;;;;;;;24.06;68.07;95447.25;5033986;28;20234;-70
2022/07/03 03:10:27;;;;;;;10.93;9.38;;;;;;;24.18;67.61;95443.66;5024348;28;20670;-70
2022/07/03 03:13:12;;;;;;;11.85;8.95;;;;;;;24.18;67.68;95453.22;5013795;28;20262;-71
2022/07/03 03:15:44;;;;;;;11.95;9.02;;;;;;;24.41;66.53;95450.44;5014043;28;20196;-70
2022/07/03 03:18:17;;;;;;;10.98;9.90;;;;;;;24.36;66.61;95451.75;5013644;28;20200;-70
2022/07/03 03:20:49;;;;;;;10.20;9.43;;;;;;;24.31;66.57;95454.72;5024545;28;20200;-71
2022/07/03 03:23:22;;;;;;;10.88;9.82;;;;;;;24.36;66.63;95447.38;5033313;28;20199;-70
2022/07/03 03:25:52;;;;;;;10.07;9.18;;;;;;;24.37;66.79;95458.59;5033646;28;20224;-71
2022/07/03 03:28:19;;;;;;;10.25;9.25;;;;;;;24.24;66.80;95464.00;5033408;28;20196;-71
2022/07/03 03:30:46;;;;;;;9.27;8.63;;;;;;;24.32;66.64;95458.97;5021890;28;20204;-71
2022/07/03 03:33:14;;;;;;;9.68;8.77;;;;;;;24.63;65.49;95453.84;5013585;28;20193;-70
2022/07/03 03:35:41;;;;;;;9.65;8.88;;;;;;;25.22;63.61;95455.84;5013448;28;20197;-69
2022/07/03 03:38:08;;;;;;;10.25;9.48;;;;;;;25.83;62.11;95460.97;5013256;28;20823;-71
2022/07/03 03:40:35;;;;;;;13.65;9.10;;;;;;;26.47;59.80;95450.06;5022006;28;20677;-71
2022/07/03 03:43:04;;;;;;;12.80;9.15;;;;;;;27.13;57.68;95445.69;5033139;28;20203;-72
2022/07/03 03:45:31;;;;;;;9.65;8.48;;;;;;;27.66;56.48;95443.28;5032413;28;20219;-71
2022/07/03 03:47:58;;;;;;;11.30;8.40;;;;;;;28.11;54.45;95445.84;5032656;28;20254;-72
2022/07/03 03:50:26;;;;;;;9.18;8.48;;;;;;;28.57;53.07;95454.44;5023588;28;20262;-72
2022/07/03 03:52:53;;;;;;;9.38;8.30;;;;;;;28.94;52.41;95450.81;5013180;28;20262;-71
2022/07/03 03:55:20;;;;;;;12.60;8.02;;;;;;;29.47;50.55;95460.25;5012787;28;20228;-71
2022/07/03 03:57:46;;;;;;;8.35;7.63;;;;;;;29.92;49.60;95457.31;5012860;28;20207;-72
2022/07/03 04:00:14;;;;;;;9.88;8.55;;;;;;;30.09;49.37;95462.44;5018393;28;20700;-70
2022/07/03 04:02:41;;;;;;;9.27;8.45;;;;;;;30.55;47.91;95462.00;5032910;28;20195;-71
2022/07/03 04:05:09;;;;;;;9.85;9.02;;;;;;;31.02;47.04;95449.84;5032464;28;20285;-71
2022/07/03 04:07:37;;;;;;;10.85;8.40;;;;;;;31.43;45.90;95453.19;5032776;28;20290;-71
2022/07/03 04:10:04;;;;;;;9.63;8.52;;;;;;;31.68;44.91;95450.50;5027457;28;20616;-71
2022/07/03 04:12:30;;;;;;;9.68;8.73;;;;;;;31.52;45.12;95455.78;5012721;28;20288;-72
2022/07/03 04:14:59;;;;;;;9.82;8.48;;;;;;;30.80;46.82;95453.16;5012794;28;20196;-71
2022/07/03 04:17:26;;;;;;;12.10;8.77;;;;;;;30.17;48.50;95451.19;5012695;28;20200;-70
2022/07/03 04:19:53;;;;;;;40.40;32.08;;;;;;;29.66;49.05;95445.13;5014740;28;20201;-70
2022/07/03 04:22:19;;;;;;;12.75;10.35;;;;;;;29.04;50.98;95443.66;5032245;28;20251;-70
2022/07/03 04:24:48;;;;;;;8.70;8.13;;;;;;;28.30;52.42;95439.66;5031932;28;20227;-71
2022/07/03 04:27:14;;;;;;;9.38;8.50;;;;;;;28.01;53.75;95444.28;5032474;28;20200;-70
2022/07/03 04:29:41;;;;;;;11.13;9.98;;;;;;;27.25;55.54;95441.09;5030904;28;20204;-70
2022/07/03 04:32:09;;;;;;;9.98;9.20;;;;;;;27.23;55.95;95438.63;5012022;28;20549;-71
2022/07/03 04:34:35;;;;;;;11.05;8.27;;;;;;;27.04;56.48;95444.75;5012286;28;20204;-70
2022/07/03 04:37:02;;;;;;;10.85;9.98;;;;;;;27.29;56.28;95442.44;5012302;28;20258;-70
2022/07/03 04:39:29;;;;;;;12.13;9.68;;;;;;;27.36;56.08;95444.34;5012295;28;20255;-70
2022/07/03 04:41:57;;;;;;;9.27;8.52;;;;;;;27.47;56.15;95445.94;5030752;28;20665;-70
2022/07/03 04:44:24;;;;;;;15.32;8.55;;;;;;;27.65;55.53;95440.81;5031710;28;20196;-70
2022/07/03 04:46:51;;;;;;;10.65;8.20;;;;;;;27.91;54.79;95454.81;5031968;28;20231;-70
2022/07/03 04:49:17;;;;;;;9.35;8.45;;;;;;;28.53;53.60;95454.88;5031650;28;20685;-70
2022/07/03 04:51:44;;;;;;;8.48;7.97;;;;;;;29.03;51.51;95448.06;5014538;28;20200;-69
2022/07/03 04:54:11;;;;;;;9.20;8.30;;;;;;;29.16;50.63;95446.84;5011486;28;20313;-69
2022/07/03 04:56:38;;;;;;;10.00;8.13;;;;;;;29.75;49.49;95448.56;5012226;28;20197;-70
2022/07/03 04:59:06;;;;;;;9.70;8.82;;;;;;;30.79;47.37;95439.22;5012043;28;20204;-69
2022/07/03 05:01:32;;;;;;;11.85;8.05;;;;;;;31.40;45.96;95439.59;5026291;28;20230;-70
2022/07/03 05:03:59;;;;;;;9.82;9.13;;;;;;;31.07;46.50;95439.66;5031380;28;20204;-70
2022/07/03 05:06:26;;;;;;;14.85;9.00;;;;;;;30.65;47.33;95444.34;5031341;28;20293;-70
2022/07/03 05:08:53;;;;;;;14.25;8.80;;;;;;;29.99;49.30;95445.22;5031574;28;20227;-70
2022/07/03 05:11:19;;;;;;;9.32;8.60;;;;;;;29.60;49.95;95440.53;5017344;28;20723;-70
2022/07/03 05:13:46;;;;;;;10.60;9.32;;;;;;;29.28;51.47;95456.06;5010238;28;20196;-70
2022/07/03 05:16:14;;;;;;;9.05;8.20;;;;;;;29.35;51.29;95443.97;5011725;28;20257;-70
2022/07/03 05:18:41;;;;;;;9.23;8.32;;;;;;;29.54;50.98;95448.19;5011744;28;20281;-69
2022/07/03 05:21:08;;;;;;;10.23;8.85;;;;;;;30.23;49.10;95447.88;5022363;28;20261;-68
2022/07/03 05:23:34;;;;;;;9.38;8.55;;;;;;;31.53;46.19;95439.88;5031181;28;20200;-70
2022/07/03 05:26:01;;;;;;;9.80;8.40;;;;;;;33.06;42.36;95441.63;5031260;28;20223;-69
2022/07/03 05:28:28;;;;;;;8.27;7.57;;;;;;;34.72;39.68;95437.28;5030983;28;20635;-69
2022/07/03 05:30:55;;;;;;;9.80;8.38;;;;;;;35.85;36.68;95436.19;5021611;28;20211;-69
2022/07/03 05:33:23;;;;;;;8.95;8.25;;;;;;;36.84;35.37;95436.41;5009545;28;20760;-70
2022/07/03 05:35:50;;;;;;;11.43;8.40;;;;;;;37.56;33.72;95438.13;5009693;28;20193;-70
2022/07/03 05:39:31;;;;;;;9.43;8.65;;;;;;;37.53;34.01;95441.19;5009624;28;20732;-70
2022/07/03 05:41:04;;;;;;;9.20;8.40;;;;;;;37.32;33.89;95444.91;5019248;28;20911;-70
2022/07/03 05:43:31;;;;;;;8.50;7.90;;;;;;;37.79;33.40;95447.22;5029605;28;20203;-70
2022/07/03 05:45:58;;;;;;;15.10;13.57;;;;;;;37.93;33.01;95441.84;5029310;28;20285;-70
2022/07/03 05:48:26;;;;;;;11.40;10.50;;;;;;;38.07;32.50;95448.75;5031081;28;20207;-69
2022/07/03 05:50:53;;;;;;;10.88;10.10;;;;;;;37.95;32.58;95450.41;5021835;28;20211;-69
2022/07/03 05:53:20;;;;;;;15.45;11.50;;;;;;;38.09;32.33;95452.00;5011185;28;20250;-69
2022/07/03 05:55:47;;;;;;;10.73;9.93;;;;;;;38.19;32.35;95452.34;5010961;28;20209;-70
2022/07/03 05:58:13;;;;;;;8.55;8.05;;;;;;;37.74;33.04;95452.34;5010820;28;20200;-69
2022/07/03 06:00:40;;;;;;;11.98;11.05;;;;;;;36.88;34.45;95449.00;5017209;28;20207;-70
2022/07/03 06:03:07;;;;;;;10.32;9.40;;;;;;;36.14;35.77;95446.44;5030573;28;20204;-70
2022/07/03 06:05:35;;;;;;;11.40;9.07;;;;;;;36.26;35.88;95447.53;5030663;28;20281;-71
2022/07/03 06:08:02;;;;;;;10.07;9.25;;;;;;;36.83;34.58;95440.06;5030983;28;20207;-70
2022/07/03 06:10:29;;;;;;;9.77;8.90;;;;;;;36.68;34.79;95442.88;5025688;28;20286;-70
2022/07/03 06:12:56;;;;;;;11.13;10.05;;;;;;;36.12;36.01;95438.72;5012664;28;20196;-70
2022/07/03 06:15:23;;;;;;;10.13;9.32;;;;;;;36.02;35.97;95448.06;5014716;28;20246;-69
2022/07/03 06:17:50;;;;;;;8.98;8.40;;;;;;;35.56;37.06;95453.94;5015130;28;20200;-71
2022/07/03 06:20:17;;;;;;;9.05;8.30;;;;;;;35.21;37.79;95447.00;5017229;28;20266;-69
2022/07/03 06:22:45;;;;;;;10.10;9.02;;;;;;;34.31;39.21;95452.97;5034559;28;20196;-69
2022/07/03 06:25:13;;;;;;;22.13;19.52;;;;;;;33.89;40.08;95453.72;5034721;28;20281;-69
2022/07/03 06:27:39;;;;;;;9.60;8.77;;;;;;;33.92;40.55;95454.16;5034425;28;20218;-69
2022/07/03 06:30:08;;;;;;;10.68;9.45;;;;;;;33.62;41.19;95453.38;5033025;28;20673;-68
2022/07/03 06:32:34;;;;;;;11.20;9.15;;;;;;;33.85;40.37;95450.63;5014523;28;20254;-69
2022/07/03 06:35:01;;;;;;;10.55;9.25;;;;;;;34.12;40.04;95449.13;5014810;28;20196;-71
2022/07/03 06:37:28;;;;;;;10.43;9.27;;;;;;;34.12;39.82;95449.13;5014640;28;20200;-69
2022/07/03 06:39:56;;;;;;;9.48;8.80;;;;;;;33.21;41.36;95452.97;5029626;28;20559;-70
2022/07/03 06:42:23;;;;;;;14.32;10.77;;;;;;;32.70;42.83;95452.78;5034250;28;20669;-69
2022/07/03 06:44:50;;;;;;;14.68;9.23;;;;;;;32.52;42.71;95449.66;5033733;28;20200;-69
2022/07/03 06:47:16;;;;;;;11.65;10.68;;;;;;;32.53;43.11;95445.22;5033994;28;20223;-68
2022/07/03 06:49:43;;;;;;;9.80;9.02;;;;;;;31.52;44.58;95443.47;5020948;28;20200;-69
2022/07/03 06:52:11;;;;;;;11.45;10.32;;;;;;;31.42;45.11;95443.69;5013866;28;20663;-69
2022/07/03 06:54:41;;;;;;;10.25;9.43;;;;;;;31.72;45.10;95444.72;5014148;28;20235;-69
2022/07/03 06:57:09;;;;;;;15.38;11.63;;;;;;;32.20;43.94;95449.88;5013521;28;20208;-68
2022/07/03 06:59:36;;;;;;;12.40;9.98;;;;;;;31.88;44.33;95450.91;5024314;28;20199;-68
2022/07/03 07:02:03;;;;;;;10.45;9.70;;;;;;;31.19;45.57;95444.56;5031586;28;20199;-68
2022/07/03 07:04:29;;;;;;;13.65;10.65;;;;;;;30.71;46.13;95441.03;5032088;28;20226;-68
2022/07/03 07:06:56;;;;;;;14.52;10.02;;;;;;;30.33;47.81;95442.50;5031852;28;20227;-68
2022/07/03 07:09:23;;;;;;;9.52;8.63;;;;;;;30.73;47.93;95434.63;5021826;28;20201;-69
2022/07/03 07:11:50;;;;;;;11.07;9.57;;;;;;;30.95;47.08;95427.88;5012004;28;20201;-69
2022/07/03 07:14:18;;;;;;;10.93;8.70;;;;;;;30.21;47.74;95436.72;5011624;28;20196;-69
2022/07/03 07:16:45;;;;;;;10.70;8.73;;;;;;;30.29;48.18;95431.50;5011939;28;20267;-69
2022/07/03 07:19:11;;;;;;;12.27;9.02;;;;;;;30.72;46.85;95426.91;5019535;28;20192;-69
2022/07/03 07:21:38;;;;;;;9.93;9.07;;;;;;;30.63;47.55;95423.50;5031209;28;20841;-70
2022/07/03 07:24:06;;;;;;;9.15;8.38;;;;;;;30.38;48.93;95420.03;5031150;28;20206;-70
2022/07/03 07:26:33;;;;;;;11.07;9.98;;;;;;;30.46;48.66;95421.81;5031341;28;20282;-69
2022/07/03 07:28:59;;;;;;;10.55;9.48;;;;;;;30.55;47.42;95420.84;5025190;28;20196;-70
2022/07/03 07:31:27;;;;;;;12.40;10.43;;;;;;;30.85;47.56;95429.03;5013002;28;20656;-70
2022/07/03 07:33:54;;;;;;;10.05;9.35;;;;;;;30.83;47.16;95423.97;5013520;28;20286;-70
2022/07/03 07:36:21;;;;;;;12.30;11.18;;;;;;;30.77;47.13;95420.19;5013102;28;20204;-68
2022/07/03 07:38:48;;;;;;;10.20;9.20;;;;;;;30.88;46.86;95421.66;5017268;28;20696;-71
2022/07/03 07:41:14;;;;;;;13.80;12.43;;;;;;;30.94;46.65;95423.59;5032954;28;20203;-68
2022/07/03 07:43:41;;;;;;;9.88;8.95;;;;;;;31.01;45.30;95429.81;5032927;28;20200;-69
2022/07/03 07:46:08;;;;;;;11.93;9.15;;;;;;;30.67;46.71;95422.19;5032538;28;20228;-69
2022/07/03 07:48:36;;;;;;;10.05;9.02;;;;;;;30.46;45.98;95422.66;5029997;28;20239;-69
2022/07/03 07:51:03;;;;;;;10.90;9.10;;;;;;;30.04;47.01;95420.19;5012868;28;20262;-69
2022/07/03 07:53:30;;;;;;;9.27;8.48;;;;;;;29.96;48.27;95419.31;5012596;28;20654;-69
2022/07/03 07:55:57;;;;;;;110.70;77.35;;;;;;;30.25;47.44;95414.44;5012712;28;20701;-69
2022/07/03 07:58:23;;;;;;;14.27;12.88;;;;;;;30.51;46.96;95414.28;5013473;28;20200;-69
2022/07/03 08:06:20;;;;;;;10.43;9.48;;;;;;;29.63;48.31;95414.00;5032178;28;20226;-70
2022/07/03 08:08:47;;;;;;;9.98;9.07;;;;;;;29.64;48.04;95417.44;5028501;28;20200;-70
2022/07/03 08:11:13;;;;;;;9.57;8.57;;;;;;;29.95;46.90;95407.19;5012322;28;20196;-71
2022/07/03 08:13:40;;;;;;;10.02;8.52;;;;;;;29.62;48.43;95401.88;5012714;28;20200;-70
2022/07/03 08:16:07;;;;;;;9.45;8.55;;;;;;;30.06;48.08;95405.09;5012683;28;20197;-70
2022/07/03 08:18:34;;;;;;;10.52;7.90;;;;;;;29.84;47.26;95404.88;5013822;28;20659;-70
2022/07/03 08:21:02;;;;;;;7.90;7.32;;;;;;;29.35;48.25;95400.31;5032409;28;20207;-70
2022/07/03 08:23:28;;;;;;;8.93;8.20;;;;;;;29.77;46.83;95402.91;5032039;28;20196;-70
2022/07/03 08:25:55;;;;;;;8.55;7.65;;;;;;;29.91;46.65;95403.28;5032333;28;20195;-70
2022/07/03 08:28:22;;;;;;;9.02;7.95;;;;;;;30.24;47.01;95397.09;5031639;28;20265;-70
2022/07/03 08:30:49;;;;;;;8.45;7.78;;;;;;;30.00;47.29;95404.94;5031336;28;20208;-70
2022/07/03 08:33:16;;;;;;;13.95;10.32;;;;;;;30.23;46.76;95403.31;5032113;28;20282;-72
2022/07/03 08:35:43;;;;;;;30.85;21.85;;;;;;;30.61;46.82;95393.19;5031224;28;20211;-71
2022/07/03 08:38:11;;;;;;;11.93;8.68;;;;;;;30.83;45.51;95408.22;5031512;28;20196;-70
2022/07/03 08:40:38;;;;;;;11.57;7.30;;;;;;;30.86;45.66;95409.69;5013819;28;20274;-71
2022/07/03 08:43:06;;;;;;;22.27;19.50;;;;;;;30.35;47.10;95411.69;5011534;28;20593;-71
2022/07/03 08:45:35;;;;;;;9.68;8.45;;;;;;;30.31;46.37;95395.44;5012044;28;20205;-69
2022/07/03 08:48:03;;;;;;;9.32;7.03;;;;;;;30.42;45.94;95397.75;5011648;28;20278;-70
2022/07/03 08:50:33;;;;;;;7.85;7.18;;;;;;;30.02;47.05;95397.72;5028167;28;20259;-70
2022/07/03 08:53:02;;;;;;;12.25;7.43;;;;;;;30.13;47.04;95389.56;5031435;28;20203;-70
2022/07/03 08:55:31;;;;;;;8.57;7.38;;;;;;;30.51;46.94;95392.47;5031147;28;20262;-70
2022/07/03 08:57:59;;;;;;;7.95;7.20;;;;;;;30.53;45.44;95383.47;5031266;28;20200;-70
2022/07/03 09:00:27;;;;;;;8.85;6.63;;;;;;;30.20;44.82;95389.69;5015538;28;20748;-70
2022/07/03 09:02:57;;;;;;;6.43;5.95;;;;;;;30.24;44.77;95389.22;5011354;28;20292;-70
2022/07/03 09:05:24;;;;;;;7.60;6.97;;;;;;;30.43;45.45;95393.34;5011754;28;20224;-70
2022/07/03 09:07:52;;;;;;;11.13;9.00;;;;;;;30.69;45.99;95390.53;5011226;28;20263;-71
2022/07/03 09:10:19;;;;;;;7.53;6.93;;;;;;;30.90;45.14;95382.97;5025619;28;20203;-70
2022/07/03 09:12:49;;;;;;;8.45;6.35;;;;;;;30.77;43.79;95388.72;5030947;28;20573;-71
2022/07/03 09:15:16;;;;;;;7.25;6.05;;;;;;;30.79;44.44;95378.03;5031438;28;20222;-71
2022/07/03 09:17:58;;;;;;;7.80;6.07;;;;;;;30.76;44.89;95375.75;5031056;28;20195;-70
2022/07/03 09:20:29;;;;;;;6.00;5.60;;;;;;;30.95;42.80;95374.56;5016060;28;20204;-70
2022/07/03 09:23:09;;;;;;;6.65;4.90;;;;;;;30.55;40.66;95364.94;5022113;28;20196;-72
2022/07/03 09:25:36;;;;;;;4.80;4.47;;;;;;;30.30;42.26;95380.72;5030609;28;20203;-70
2022/07/03 09:28:04;;;;;;;6.03;5.47;;;;;;;30.48;41.32;95371.84;5030263;28;20614;-70
2022/07/03 09:30:31;;;;;;;6.10;5.70;;;;;;;30.54;43.03;95381.66;5030772;28;20203;-70
2022/07/03 09:32:59;;;;;;;5.68;5.25;;;;;;;30.18;40.96;95382.03;5030914;28;20210;-70
2022/07/03 09:35:27;;;;;;;5.70;5.20;;;;;;;29.76;42.80;95382.09;5031243;28;20208;-71
2022/07/03 09:37:56;;;;;;;8.45;5.78;;;;;;;29.94;43.66;95369.69;5012005;28;20208;-71
2022/07/03 09:40:24;;;;;;;6.10;5.60;;;;;;;30.11;43.31;95366.13;5011377;28;20201;-71
2022/07/03 09:43:01;;;;;;;6.00;5.70;;;;;;;30.54;41.75;95371.19;5010798;28;20200;-70
2022/07/03 09:45:49;;;;;;;4.60;4.32;;;;;;;30.11;40.96;95368.75;5011034;28;20560;-71
2022/07/03 09:48:32;;;;;;;5.60;5.07;;;;;;;30.36;41.34;95368.75;5030647;28;20281;-68
2022/07/03 09:51:17;;;;;;;5.45;5.00;;;;;;;29.93;42.03;95378.53;5028272;28;20257;-70
2022/07/03 09:53:56;;;;;;;5.68;5.20;;;;;;;29.78;43.18;95373.09;5030446;28;20245;-70
2022/07/03 09:56:26;;;;;;;6.35;5.88;;;;;;;30.11;43.19;95360.88;5024884;28;20674;-72
2022/07/03 09:59:03;;;;;;;6.15;5.65;;;;;;;30.54;42.74;95355.44;5010857;28;20204;-71
2022/07/03 10:01:32;;;;;;;6.78;5.78;;;;;;;30.00;41.89;95369.06;5010728;28;20263;-71
2022/07/03 10:04:11;;;;;;;6.63;5.28;;;;;;;29.84;44.42;95368.19;5010963;28;20197;-71
2022/07/03 10:06:54;;;;;;;6.07;5.63;;;;;;;30.22;43.12;95362.34;5017640;28;20229;-71
2022/07/03 10:09:23;;;;;;;8.45;5.63;;;;;;;30.74;42.84;95356.72;5028482;28;20196;-70
2022/07/03 10:11:50;;;;;;;6.18;5.60;;;;;;;31.04;41.09;95345.50;5030458;28;20211;-71
2022/07/03 10:14:18;;;;;;;5.30;4.75;;;;;;;31.02;41.15;95347.47;5030729;28;20195;-71
2022/07/03 10:16:47;;;;;;;7.18;5.40;;;;;;;30.40;42.75;95339.41;5022266;28;20200;-70
2022/07/03 10:19:18;;;;;;;5.40;4.90;;;;;;;30.21;42.87;95344.97;5010747;28;20205;-71
2022/07/03 10:21:50;;;;;;;6.00;5.60;;;;;;;30.16;43.48;95341.22;5010814;28;20238;-69
2022/07/03 10:24:18;;;;;;;5.82;5.45;;;;;;;29.91;44.44;95337.75;5010890;28;20204;-69
2022/07/03 10:26:45;;;;;;;5.90;5.38;;;;;;;30.06;43.72;95336.16;5018066;28;20223;-70
2022/07/03 10:29:15;;;;;;;9.40;8.63;;;;;;;30.80;43.19;95327.22;5030319;28;20673;-70
2022/07/03 10:31:47;;;;;;;5.20;4.90;;;;;;;30.89;42.22;95328.81;5029909;28;20203;-70
2022/07/03 10:34:19;;;;;;;5.85;5.28;;;;;;;30.56;42.69;95327.28;5030447;28;20211;-69
2022/07/03 10:36:48;;;;;;;5.15;4.85;;;;;;;30.61;41.86;95320.53;5022360;28;20691;-69
2022/07/03 10:39:24;;;;;;;5.47;5.13;;;;;;;30.56;40.97;95322.84;5010637;28;20298;-71
2022/07/03 10:44:54;;;;;;;7.63;4.60;;;;;;;30.44;38.16;95314.47;5010333;28;20216;-70
2022/07/03 10:47:46;;;;;;;4.95;4.55;;;;;;;30.59;37.91;95317.28;5021927;28;20629;-67
2022/07/03 10:50:15;;;;;;;4.70;4.40;;;;;;;30.71;37.60;95307.22;5025535;28;20204;-71
2022/07/03 10:52:43;;;;;;;4.75;4.45;;;;;;;30.35;36.96;95307.63;5030350;28;20199;-71
2022/07/03 10:55:11;;;;;;;4.85;4.50;;;;;;;30.17;38.12;95307.00;5029688;28;20228;-68
2022/07/03 10:57:39;;;;;;;7.25;3.60;;;;;;;29.93;38.09;95306.97;5016520;28;20204;-71
2022/07/03 11:00:18;;;;;;;7.00;4.00;;;;;;;30.30;37.52;95307.28;5013068;28;20200;-69
2022/07/03 11:02:48;;;;;;;3.92;3.63;;;;;;;30.38;36.81;95299.41;5013614;28;20207;-69
2022/07/03 11:05:37;;;;;;;4.45;4.13;;;;;;;30.29;36.01;95300.41;5013241;28;20221;-69
2022/07/03 11:08:08;;;;;;;4.75;4.45;;;;;;;30.54;36.13;95288.06;5030511;28;20258;-70
2022/07/03 11:10:43;;;;;;;5.82;3.90;;;;;;;30.20;34.99;95295.31;5033481;28;20208;-69
2022/07/03 11:13:28;;;;;;;6.78;3.90;;;;;;;30.13;34.40;95292.56;5033524;28;20203;-70
2022/07/03 11:15:55;;;;;;;4.28;3.92;;;;;;;30.11;35.14;95286.69;5033406;28;20200;-68
2022/07/03 11:18:29;;;;;;;4.60;3.58;;;;;;;30.37;35.43;95287.28;5014203;28;20263;-69
2022/07/03 11:21:37;;;;;;;4.38;4.10;;;;;;;29.94;35.89;95279.78;5013469;28;20200;-69
2022/07/03 11:24:39;;;;;;;5.47;3.88;;;;;;;29.79;36.31;95280.44;5013532;28;20641;-69
2022/07/03 11:27:24;;;;;;;4.13;3.92;;;;;;;29.92;35.68;95284.38;5015744;28;20216;-70
2022/07/03 11:30:01;;;;;;;3.95;3.50;;;;;;;30.24;36.31;95263.38;5013275;28;20204;-70
2022/07/03 11:32:57;;;;;;;5.57;4.85;;;;;;;30.52;36.55;95268.22;5013217;28;20196;-69
2022/07/03 11:36:00;;;;;;;10.77;5.15;;;;;;;30.59;36.78;95266.59;5013105;28;20670;-69
2022/07/03 11:38:32;;;;;;;10.77;5.47;;;;;;;30.99;36.71;95266.44;5032490;28;20192;-71
2022/07/03 11:41:01;;;;;;;5.45;4.93;;;;;;;30.96;36.42;95264.16;5032561;28;20665;-70
2022/07/03 11:43:29;;;;;;;5.35;4.85;;;;;;;31.02;36.97;95258.22;5033228;28;20628;-70
2022/07/03 11:45:55;;;;;;;4.25;4.05;;;;;;;30.88;36.87;95258.97;5032672;28;20203;-69
2022/07/03 11:48:23;;;;;;;4.95;4.65;;;;;;;31.07;36.20;95258.53;5014425;28;20255;-71
2022/07/03 11:50:51;;;;;;;7.35;4.03;;;;;;;30.86;36.75;95245.19;5013067;28;20666;-68
2022/07/03 11:53:22;;;;;;;4.28;4.07;;;;;;;31.13;36.19;95251.00;5013204;28;20240;-72